Grand Narrows, Canada
Current Conditions -  °F | °C
As of 1:57 AM on Friday 28 Nov 2014 (Local Time) from CYPD Reporting Station
Light Snow Light Snow  
Wind Chill: 23°   Ceiling: 1500
Heat Index: 30°   Visibility: 6mi
Dew Point: 27°   Wind: 7mph
Humidity: 86%   Direction: 320°NW
Pressure: 29.87"   Gusts: NA
Location:  45.95°N, 60.78°W
Report Text: CYPD 280557Z AUTO 32006KT 290V350 6SM -SN BKN015 BKN023 OVC027 M01/M03 A2987 RMK PRESRR SLP119
Loading
Personal Weather Stations






























Interactive Weather Map New forecast layout! Learn more

10-Day Weather Forecast

Advertisements
Track Severe Weather on mobile